Time;durP1;ratioP1;P1;durP2;ratioP2;P2;SDS_P1;SDS_P2;PMS_P1;PMS_P2;Temp;Humidity;BMP_temperature;BMP_pressure;BME280_temperature;BME280_humidity;BME280_pressure;Samples;Min_cycle;Max_cycle;Signal;HPM_P1;HPM_P2
2021/06/03 00:00:58;;;;;;;6.53;4.10;;;19.40;1.00;;;;;;5011184;28;20112;-65
2021/06/03 00:03:46;;;;;;;6.95;3.88;;;19.30;1.00;;;;;;5023224;28;20053;-64
2021/06/03 00:06:34;;;;;;;6.95;4.20;;;19.20;1.00;;;;;;5021722;28;20050;-65
2021/06/03 00:09:22;;;;;;;10.30;4.13;;;19.10;1.00;;;;;;5014636;28;20492;-64
2021/06/03 00:12:10;;;;;;;9.82;4.40;;;19.10;1.00;;;;;;5023812;28;20053;-64
2021/06/03 00:14:59;;;;;;;9.85;5.32;;;19.10;1.00;;;;;;5021586;28;20117;-65
2021/06/03 00:17:48;;;;;;;12.35;5.60;;;19.10;1.00;;;;;;5002907;28;20358;-65
2021/06/03 00:20:37;;;;;;;9.63;5.20;;;19.10;1.00;;;;;;5006727;28;20057;-64
2021/06/03 00:23:25;;;;;;;14.25;6.60;;;18.90;1.00;;;;;;5023922;28;20132;-64
2021/06/03 00:26:13;;;;;;;17.73;6.65;;;18.90;1.00;;;;;;5025572;28;20114;-65
2021/06/03 00:29:01;;;;;;;14.13;7.15;;;19.00;1.00;;;;;;5018711;28;20111;-64
2021/06/03 00:31:50;;;;;;;11.82;6.43;;;18.90;1.00;;;;;;5019109;28;20171;-65
2021/06/03 00:34:38;;;;;;;17.08;7.15;;;18.90;1.00;;;;;;5010368;28;20045;-63
2021/06/03 00:37:26;;;;;;;16.00;7.22;;;18.90;1.00;;;;;;5022916;28;20073;-64
2021/06/03 00:40:15;;;;;;;13.98;6.85;;;18.90;1.00;;;;;;5021295;28;20151;-63
2021/06/03 00:43:03;;;;;;;12.98;6.53;;;18.80;1.00;;;;;;5021132;28;20077;-64
2021/06/03 00:45:51;;;;;;;10.68;6.88;;;18.60;1.00;;;;;;5023088;28;20512;-64
2021/06/03 00:48:41;;;;;;;16.92;6.88;;;18.60;1.00;;;;;;5018133;28;20052;-65
2021/06/03 00:51:29;;;;;;;14.70;7.45;;;18.50;1.00;;;;;;5023833;28;20080;-64
2021/06/03 00:54:18;;;;;;;16.10;7.65;;;18.50;1.00;;;;;;5006826;28;20049;-64
2021/06/03 00:57:07;;;;;;;15.70;8.07;;;18.40;1.00;;;;;;5009638;28;20049;-65
2021/06/03 00:59:55;;;;;;;15.55;8.27;;;18.50;1.00;;;;;;5033731;28;20100;-65
2021/06/03 01:02:44;;;;;;;14.35;8.13;;;18.50;1.00;;;;;;5009571;28;20520;-64
2021/06/03 01:05:38;;;;;;;14.25;7.25;;;18.50;1.00;;;;;;5025247;28;20132;-65
2021/06/03 01:08:32;;;;;;;23.60;8.73;;;18.40;1.00;;;;;;5004621;28;20056;-64
2021/06/03 01:11:25;;;;;;;17.75;8.75;;;18.40;1.00;;;;;;5009936;28;20064;-64
2021/06/03 01:14:19;;;;;;;;;;;18.40;1.00;;;;;;5014004;28;20045;-64
2021/06/03 01:17:08;;;;;;;16.25;8.65;;;18.30;1.00;;;;;;5013626;28;19925;-64
2021/06/03 01:19:56;;;;;;;19.45;8.77;;;18.30;1.00;;;;;;5006336;28;20394;-63
2021/06/03 01:22:57;;;;;;;17.00;8.48;;;18.20;1.00;;;;;;5007877;28;20484;-63
2021/06/03 01:25:48;;;;;;;21.95;9.52;;;18.20;1.00;;;;;;5008790;28;20045;-64
2021/06/03 01:28:36;;;;;;;19.30;9.65;;;18.20;1.00;;;;;;5009075;28;20053;-64
2021/06/03 01:31:24;;;;;;;17.20;9.13;;;18.10;1.00;;;;;;5025154;28;20056;-64
2021/06/03 01:34:12;;;;;;;16.30;9.60;;;18.10;1.00;;;;;;5029045;28;20049;-64
2021/06/03 01:37:01;;;;;;;15.50;9.00;;;18.00;1.00;;;;;;5012270;28;20038;-65
2021/06/03 01:39:50;;;;;;;19.40;9.48;;;17.90;1.00;;;;;;5007335;28;20188;-64
2021/06/03 01:42:40;;;;;;;17.30;9.43;;;17.80;1.00;;;;;;5014164;28;20057;-65
2021/06/03 01:45:29;;;;;;;14.70;8.40;;;17.70;1.00;;;;;;5007870;28;20053;-65
2021/06/03 01:48:19;;;;;;;14.48;8.32;;;17.70;1.00;;;;;;5026665;28;20046;-64
2021/06/03 01:51:10;;;;;;;20.52;8.68;;;17.70;1.00;;;;;;5024191;28;20045;-65
2021/06/03 01:53:59;;;;;;;24.42;8.48;;;17.70;1.00;;;;;;5027382;28;20132;-65
2021/06/03 01:56:47;;;;;;;17.27;8.65;;;17.70;1.00;;;;;;5028247;28;20049;-65
2021/06/03 01:59:42;;;;;;;12.60;7.57;;;17.80;1.00;;;;;;5010727;28;20050;-64
2021/06/03 02:02:29;;;;;;;10.88;6.15;;;17.70;1.00;;;;;;5021192;28;20140;-64
2021/06/03 02:05:18;;;;;;;13.23;6.95;;;17.70;1.00;;;;;;5025932;28;20118;-64
2021/06/03 02:08:06;;;;;;;8.23;5.78;;;17.80;1.00;;;;;;5011249;28;20179;-64
2021/06/03 02:11:04;;;;;;;17.90;6.75;;;17.80;1.00;;;;;;5010758;28;20046;-64
2021/06/03 02:13:58;;;;;;;10.13;6.35;;;17.80;1.00;;;;;;5009429;28;20038;-65
2021/06/03 02:16:59;;;;;;;9.05;6.85;;;17.80;1.00;;;;;;5023395;28;20536;-64
2021/06/03 02:19:57;;;;;;;10.77;6.30;;;17.80;1.00;;;;;;5006806;28;20534;-64
2021/06/03 02:22:52;;;;;;;9.30;6.80;;;18.00;1.00;;;;;;5027652;28;20046;-64
2021/06/03 02:25:43;;;;;;;11.77;6.25;;;18.00;1.00;;;;;;5012365;28;20097;-63
2021/06/03 02:28:33;;;;;;;9.10;6.35;;;17.90;1.00;;;;;;5023239;28;20053;-65
2021/06/03 02:31:22;;;;;;;12.75;6.03;;;17.80;1.00;;;;;;5008100;28;20048;-65
2021/06/03 02:34:15;;;;;;;10.88;6.45;;;17.80;1.00;;;;;;5024822;28;20064;-64
2021/06/03 02:37:08;;;;;;;13.77;6.32;;;17.80;1.00;;;;;;5027627;28;20058;-63
2021/06/03 02:39:59;;;;;;;8.60;6.13;;;17.80;1.00;;;;;;5025785;28;20052;-65
2021/06/03 02:42:49;;;;;;;11.68;5.57;;;17.90;1.00;;;;;;5004046;28;20092;-63
2021/06/03 02:45:39;;;;;;;11.05;6.20;;;18.00;1.00;;;;;;5021136;28;20048;-64
2021/06/03 02:48:27;;;;;;;9.05;6.03;;;17.90;1.00;;;;;;5006184;28;20058;-64
2021/06/03 02:51:18;;;;;;;8.43;5.82;;;17.80;1.00;;;;;;5013451;28;20057;-64
2021/06/03 02:54:07;;;;;;;8.05;6.10;;;17.70;1.00;;;;;;5011452;28;20050;-64
2021/06/03 02:57:02;;;;;;;9.77;6.22;;;17.70;1.00;;;;;;5038303;28;20057;-64
2021/06/03 02:59:52;;;;;;;10.35;6.00;;;17.70;1.00;;;;;;5023572;28;20053;-63
2021/06/03 03:02:40;;;;;;;9.77;5.70;;;17.70;1.00;;;;;;5010099;28;20505;-64
2021/06/03 03:05:29;;;;;;;10.23;5.97;;;17.70;1.00;;;;;;5011053;28;20050;-62
2021/06/03 03:08:19;;;;;;;9.55;5.68;;;17.80;1.00;;;;;;4994518;28;20056;-65
2021/06/03 03:11:09;;;;;;;11.48;5.90;;;17.70;1.00;;;;;;5008804;28;20053;-64
2021/06/03 03:14:03;;;;;;;10.05;5.82;;;17.70;1.00;;;;;;5007179;28;20050;-64
2021/06/03 03:16:51;;;;;;;8.30;5.72;;;17.70;1.00;;;;;;5009399;28;20053;-64
2021/06/03 03:19:39;;;;;;;8.90;6.20;;;17.70;1.00;;;;;;5024714;28;20156;-63
2021/06/03 03:22:27;;;;;;;8.23;5.88;;;17.60;1.00;;;;;;5021345;28;20049;-65
2021/06/03 03:25:19;;;;;;;7.43;5.53;;;17.70;1.00;;;;;;5004893;28;20049;-63
2021/06/03 03:28:09;;;;;;;8.63;6.00;;;17.70;1.00;;;;;;5024694;28;20053;-63
2021/06/03 03:30:58;;;;;;;7.25;5.53;;;17.70;1.00;;;;;;5010913;28;20101;-64
2021/06/03 03:33:50;;;;;;;8.88;5.68;;;17.70;1.00;;;;;;5010345;28;20103;-64
2021/06/03 03:36:39;;;;;;;7.90;5.55;;;17.70;1.00;;;;;;5036517;28;20145;-63
2021/06/03 03:39:29;;;;;;;11.25;5.93;;;17.80;1.00;;;;;;5021286;28;20053;-63
2021/06/03 03:42:19;;;;;;;10.63;6.45;;;18.00;1.00;;;;;;5006310;28;20512;-64
2021/06/03 03:45:10;;;;;;;7.80;5.43;;;18.10;1.00;;;;;;5027894;28;20492;-64
2021/06/03 03:48:00;;;;;;;9.20;5.50;;;18.30;1.00;;;;;;5024984;28;20052;-64
2021/06/03 03:50:49;;;;;;;8.68;5.15;;;18.40;1.00;;;;;;5008038;28;20064;-64
2021/06/03 03:53:44;;;;;;;8.88;4.95;;;18.80;1.00;;;;;;5005950;28;20447;-64
2021/06/03 03:56:39;;;;;;;7.75;5.57;;;19.10;1.00;;;;;;5007983;28;20037;-63
2021/06/03 03:59:29;;;;;;;9.77;5.65;;;19.30;1.00;;;;;;5007014;28;20114;-63
2021/06/03 04:02:17;;;;;;;7.85;5.40;;;19.60;1.00;;;;;;4996998;28;20064;-64
2021/06/03 04:05:08;;;;;;;9.63;5.40;;;19.40;1.00;;;;;;5007850;28;20128;-64
2021/06/03 04:07:55;;;;;;;7.60;5.47;;;19.00;1.00;;;;;;5020347;28;20127;-64
2021/06/03 04:10:47;;;;;;;6.97;5.00;;;18.70;1.00;;;;;;5035998;28;20825;-64
2021/06/03 04:13:37;;;;;;;7.18;5.35;;;19.30;1.00;;;;;;5012315;28;20061;-65
2021/06/03 04:16:31;;;;;;;7.90;5.32;;;20.20;1.00;;;;;;5008988;28;20481;-65
2021/06/03 04:19:19;;;;;;;9.88;5.82;;;19.70;1.00;;;;;;5002875;28;20177;-64
2021/06/03 04:22:07;;;;;;;6.57;5.20;;;19.40;1.00;;;;;;5006645;28;20905;-64
2021/06/03 04:24:58;;;;;;;8.68;5.15;;;19.60;1.00;;;;;;5010012;28;20124;-65
2021/06/03 04:27:47;;;;;;;7.15;5.28;;;19.20;1.00;;;;;;5024457;28;20124;-64
2021/06/03 04:30:39;;;;;;;9.63;5.93;;;18.90;1.00;;;;;;5006551;28;20076;-63
2021/06/03 04:33:29;;;;;;;7.47;5.25;;;18.60;1.00;;;;;;5005669;28;20512;-64
2021/06/03 04:36:16;;;;;;;9.18;5.18;;;18.50;1.00;;;;;;5024783;28;20038;-64
2021/06/03 04:39:05;;;;;;;7.93;5.35;;;18.40;1.00;;;;;;5022882;28;20081;-64
2021/06/03 04:41:54;;;;;;;8.38;5.55;;;18.50;1.00;;;;;;5005241;28;20057;-63
2021/06/03 04:44:42;;;;;;;7.80;5.75;;;18.60;1.00;;;;;;5024130;28;20046;-64
2021/06/03 04:47:30;;;;;;;6.88;5.22;;;18.40;1.00;;;;;;5023521;28;20053;-64
2021/06/03 04:50:22;;;;;;;7.03;5.60;;;18.30;1.00;;;;;;5013185;28;20127;-64
2021/06/03 04:53:10;;;;;;;7.88;5.55;;;18.20;1.00;;;;;;5026194;28;20049;-64
2021/06/03 04:55:58;;;;;;;6.25;5.47;;;18.20;1.00;;;;;;5027221;28;20072;-64
2021/06/03 04:58:47;;;;;;;6.82;5.68;;;18.10;1.00;;;;;;5023867;28;20128;-65
2021/06/03 05:01:35;;;;;;;7.90;5.68;;;18.20;1.00;;;;;;5025097;28;20091;-62
2021/06/03 05:04:23;;;;;;;6.85;5.35;;;18.40;1.00;;;;;;5028159;28;20049;-64
2021/06/03 05:07:13;;;;;;;7.22;5.72;;;18.10;1.00;;;;;;5030207;28;20418;-63
2021/06/03 05:10:01;;;;;;;6.78;5.82;;;18.20;1.00;;;;;;5024435;28;20042;-64
2021/06/03 05:12:49;;;;;;;10.05;5.60;;;18.20;1.00;;;;;;5023316;28;20049;-64
2021/06/03 05:15:38;;;;;;;6.75;5.30;;;18.20;1.00;;;;;;5027011;28;20046;-64
2021/06/03 05:18:27;;;;;;;6.70;5.25;;;18.10;1.00;;;;;;5027735;28;20049;-65
2021/06/03 05:21:15;;;;;;;6.65;5.60;;;18.30;1.00;;;;;;5011984;28;20052;-64
2021/06/03 05:24:07;;;;;;;7.63;5.68;;;18.30;1.00;;;;;;5014873;28;20054;-64
2021/06/03 05:26:55;;;;;;;6.82;5.05;;;18.50;1.00;;;;;;5024759;28;20123;-64
2021/06/03 05:29:43;;;;;;;7.90;5.40;;;18.60;1.00;;;;;;5025660;28;20114;-64
2021/06/03 05:32:31;;;;;;;8.00;5.90;;;18.50;1.00;;;;;;5029877;28;20153;-64
2021/06/03 05:35:21;;;;;;;7.97;5.85;;;18.40;1.00;;;;;;5029490;28;20069;-64
2021/06/03 05:38:09;;;;;;;6.80;5.22;;;18.60;1.00;;;;;;5025768;28;20057;-64
2021/06/03 05:40:58;;;;;;;9.98;5.72;;;18.70;1.00;;;;;;5024563;28;20045;-63
2021/06/03 05:43:46;;;;;;;11.07;6.43;;;18.80;1.00;;;;;;5021536;28;20049;-63
2021/06/03 05:46:35;;;;;;;7.93;5.70;;;18.70;1.00;;;;;;5025587;28;20192;-64
2021/06/03 05:49:23;;;;;;;6.93;5.35;;;19.10;1.00;;;;;;5011001;28;20057;-63
2021/06/03 05:52:11;;;;;;;10.55;6.03;;;19.40;1.00;;;;;;5015542;28;20509;-64
2021/06/03 05:54:59;;;;;;;9.02;5.40;;;19.30;1.00;;;;;;5025534;28;20457;-64
2021/06/03 05:57:50;;;;;;;7.22;5.20;;;19.10;1.00;;;;;;5027290;28;20136;-64
2021/06/03 06:00:38;;;;;;;7.22;5.45;;;19.30;1.00;;;;;;5010705;28;20060;-64
2021/06/03 06:03:35;;;;;;;8.30;5.22;;;19.50;1.00;;;;;;5023394;28;20136;-64
2021/06/03 06:06:25;;;;;;;5.45;4.88;;;19.70;1.00;;;;;;5025077;28;20531;-64
2021/06/03 06:09:14;;;;;;;7.13;5.40;;;19.90;1.00;;;;;;5022818;28;20060;-64
2021/06/03 06:12:02;;;;;;;7.18;5.22;;;20.30;1.00;;;;;;5024163;28;20143;-64
2021/06/03 06:14:51;;;;;;;8.50;5.20;;;20.90;1.00;;;;;;5022230;28;20049;-64
2021/06/03 06:17:39;;;;;;;8.73;5.65;;;21.60;1.00;;;;;;5027615;28;20175;-64
2021/06/03 06:20:27;;;;;;;7.20;4.97;;;21.30;1.00;;;;;;5022682;28;20056;-64
2021/06/03 06:23:16;;;;;;;5.95;4.97;;;21.20;1.00;;;;;;5019259;28;20046;-64
2021/06/03 06:26:05;;;;;;;6.75;4.93;;;20.90;1.00;;;;;;5026770;28;20094;-64
2021/06/03 06:28:55;;;;;;;5.88;4.93;;;21.30;1.00;;;;;;5024170;28;20147;-65
2021/06/03 06:31:44;;;;;;;4.95;4.55;;;21.40;1.00;;;;;;5021974;28;20089;-64
2021/06/03 06:34:32;;;;;;;6.78;4.72;;;22.50;1.00;;;;;;5023737;28;20611;-64
2021/06/03 06:37:20;;;;;;;7.25;4.68;;;23.30;1.00;;;;;;5024728;28;20454;-64
2021/06/03 06:40:08;;;;;;;5.63;4.20;;;24.00;1.00;;;;;;5026082;28;20385;-65
2021/06/03 06:42:57;;;;;;;5.68;4.75;;;23.50;1.00;;;;;;5020771;28;20084;-63
2021/06/03 06:45:46;;;;;;;6.20;4.72;;;23.70;1.00;;;;;;5024176;28;20248;-64
2021/06/03 06:48:35;;;;;;;5.35;4.32;;;22.50;1.00;;;;;;5027025;28;20458;-64
2021/06/03 06:51:23;;;;;;;5.97;4.10;;;22.70;1.00;;;;;;5023016;28;20089;-64
2021/06/03 06:54:11;;;;;;;4.85;3.63;;;23.20;1.00;;;;;;5037511;28;20056;-65
2021/06/03 06:56:59;;;;;;;5.35;4.38;;;23.00;1.00;;;;;;5027053;28;20421;-64
2021/06/03 06:59:47;;;;;;;5.35;4.07;;;22.70;1.00;;;;;;5025077;28;20213;-64
2021/06/03 07:02:37;;;;;;;5.30;4.20;;;22.50;1.00;;;;;;5020186;28;20098;-64
2021/06/03 07:05:27;;;;;;;4.78;3.42;;;22.60;1.00;;;;;;5025623;28;20128;-65
2021/06/03 07:08:16;;;;;;;6.72;4.07;;;22.30;1.00;;;;;;5026862;28;20140;-65
2021/06/03 07:11:04;;;;;;;6.28;3.70;;;22.40;1.00;;;;;;5010588;28;20124;-65
2021/06/03 07:13:52;;;;;;;5.28;4.47;;;22.50;1.00;;;;;;5022347;28;20096;-65
2021/06/03 07:16:40;;;;;;;6.50;4.60;;;22.80;1.00;;;;;;5026646;28;20052;-64
2021/06/03 07:19:28;;;;;;;6.03;4.03;;;22.50;1.00;;;;;;5025497;28;20318;-65
2021/06/03 07:22:17;;;;;;;4.53;3.78;;;23.00;1.00;;;;;;5018965;28;20140;-63
2021/06/03 07:25:07;;;;;;;5.00;4.43;;;23.00;1.00;;;;;;5024561;28;20132;-64
2021/06/03 07:27:56;;;;;;;4.53;4.10;;;22.90;1.00;;;;;;5020085;28;20055;-64
2021/06/03 07:30:45;;;;;;;5.38;4.43;;;23.00;1.00;;;;;;4993193;28;20918;-64
2021/06/03 07:33:32;;;;;;;4.90;3.90;;;22.70;1.00;;;;;;5005843;28;20056;-64
2021/06/03 07:36:20;;;;;;;7.47;4.45;;;22.90;1.00;;;;;;5023715;28;20037;-65
2021/06/03 07:39:10;;;;;;;7.97;4.10;;;23.20;1.00;;;;;;5022716;28;20052;-64
2021/06/03 07:41:58;;;;;;;7.45;4.18;;;23.10;1.00;;;;;;5003191;28;20060;-64
2021/06/03 07:44:46;;;;;;;6.97;3.95;;;23.30;1.00;;;;;;5024573;28;20052;-65
2021/06/03 07:47:35;;;;;;;7.93;3.80;;;22.90;1.00;;;;;;5023349;28;20124;-64
2021/06/03 07:50:24;;;;;;;5.68;3.60;;;22.80;1.00;;;;;;5024741;28;20123;-64
2021/06/03 07:53:12;;;;;;;5.15;3.60;;;22.00;1.00;;;;;;5004617;28;20053;-65
2021/06/03 07:56:02;;;;;;;5.43;3.92;;;22.80;1.00;;;;;;5024983;28;20034;-65
2021/06/03 07:58:49;;;;;;;6.50;4.57;;;23.10;1.00;;;;;;5025036;28;20098;-65
2021/06/03 08:01:38;;;;;;;6.20;4.10;;;23.20;1.00;;;;;;5022744;28;20095;-64
2021/06/03 08:04:26;;;;;;;4.28;3.88;;;22.90;1.00;;;;;;5007866;28;20041;-64
2021/06/03 08:07:14;;;;;;;7.95;4.10;;;22.90;1.00;;;;;;5023087;28;20066;-64
2021/06/03 08:10:03;;;;;;;5.30;3.53;;;23.70;1.00;;;;;;5006551;28;20045;-64
2021/06/03 08:12:55;;;;;;;4.25;3.70;;;23.60;1.00;;;;;;5020540;28;20194;-65
2021/06/03 08:15:44;;;;;;;4.95;3.63;;;23.30;1.00;;;;;;5024354;28;20458;-64
2021/06/03 08:18:33;;;;;;;3.63;3.22;;;23.10;1.00;;;;;;5022496;28;20136;-64
2021/06/03 08:21:22;;;;;;;5.25;3.08;;;23.50;1.00;;;;;;5004318;28;20092;-63
2021/06/03 08:24:10;;;;;;;5.03;3.10;;;23.70;1.00;;;;;;5022469;28;20061;-65
2021/06/03 08:26:58;;;;;;;6.30;3.58;;;23.50;1.00;;;;;;5026622;28;20163;-64
2021/06/03 08:29:48;;;;;;;6.18;3.63;;;23.20;1.00;;;;;;5020801;28;20412;-65
2021/06/03 08:32:36;;;;;;;4.03;3.65;;;23.40;1.00;;;;;;5018748;28;20068;-64
2021/06/03 08:35:25;;;;;;;5.75;3.45;;;23.30;1.00;;;;;;5025205;28;20175;-64
2021/06/03 08:38:14;;;;;;;6.32;3.70;;;22.90;1.00;;;;;;5010046;28;20560;-65
2021/06/03 08:41:02;;;;;;;5.75;3.90;;;22.90;1.00;;;;;;5023336;28;20088;-64
2021/06/03 08:43:51;;;;;;;5.57;3.33;;;22.60;1.00;;;;;;5018892;28;20526;-63
2021/06/03 08:46:40;;;;;;;5.57;3.88;;;22.70;1.00;;;;;;4994745;28;20118;-63
2021/06/03 08:49:29;;;;;;;4.97;3.70;;;23.10;1.00;;;;;;5019114;28;20067;-65
2021/06/03 08:52:17;;;;;;;4.07;2.70;;;23.20;1.00;;;;;;5021171;28;20087;-65
2021/06/03 08:55:08;;;;;;;4.90;3.03;;;23.20;1.00;;;;;;5008329;28;20060;-63
2021/06/03 08:57:57;;;;;;;3.88;3.47;;;23.40;1.00;;;;;;5020862;28;20048;-64
2021/06/03 09:00:46;;;;;;;4.95;3.33;;;23.60;1.00;;;;;;5021775;28;20572;-65
2021/06/03 09:03:36;;;;;;;4.93;3.40;;;23.70;1.00;;;;;;5019930;28;20053;-66
2021/06/03 09:06:26;;;;;;;5.55;3.45;;;23.80;1.00;;;;;;5043662;28;20131;-64
2021/06/03 09:09:25;;;;;;;5.85;3.38;;;23.80;1.00;;;;;;5020090;28;20115;-64
2021/06/03 09:12:14;;;;;;;4.75;3.15;;;24.00;1.00;;;;;;5003697;28;20085;-64
2021/06/03 09:15:21;;;;;;;5.78;3.85;;;23.80;1.00;;;;;;5010368;28;20384;-65
2021/06/03 09:18:10;;;;;;;3.58;3.20;;;23.90;1.00;;;;;;5022920;28;20052;-64
2021/06/03 09:21:09;;;;;;;4.60;3.20;;;24.00;1.00;;;;;;5024191;28;20049;-65
2021/06/03 09:24:00;;;;;;;3.63;2.95;;;24.00;1.00;;;;;;5022502;28;20113;-65
2021/06/03 09:26:53;;;;;;;7.68;3.40;;;24.00;1.00;;;;;;4977871;28;20038;-64
2021/06/03 09:29:42;;;;;;;5.15;3.35;;;23.80;1.00;;;;;;4993916;28;20057;-64
2021/06/03 09:32:31;;;;;;;3.97;3.05;;;24.20;1.00;;;;;;5007396;28;20124;-64
2021/06/03 09:35:22;;;;;;;4.57;3.25;;;23.90;1.00;;;;;;5016363;28;20095;-65
2021/06/03 09:38:12;;;;;;;3.30;2.97;;;23.70;1.00;;;;;;4999298;28;20389;-64
2021/06/03 09:41:00;;;;;;;4.40;2.80;;;23.90;1.00;;;;;;5008912;28;20820;-65
2021/06/03 09:43:49;;;;;;;7.13;2.85;;;24.20;1.00;;;;;;5025580;28;20574;-65
2021/06/03 09:46:40;;;;;;;4.50;2.88;;;24.60;1.00;;;;;;5026333;28;20053;-65
2021/06/03 09:49:32;;;;;;;9.02;8.13;;;24.40;1.00;;;;;;5013127;28;20053;-65
2021/06/03 09:52:24;;;;;;;4.60;3.00;;;24.70;1.00;;;;;;5021182;28;20049;-65
2021/06/03 09:55:15;;;;;;;5.13;2.63;;;24.90;1.00;;;;;;5026646;28;20123;-66
2021/06/03 09:58:03;;;;;;;4.15;3.10;;;25.10;1.00;;;;;;5011560;28;20119;-65
2021/06/03 10:00:51;;;;;;;3.67;2.92;;;25.10;1.00;;;;;;5010527;28;20042;-65
2021/06/03 10:03:49;;;;;;;5.65;2.95;;;25.10;1.00;;;;;;5023196;28;20733;-65
2021/06/03 10:06:53;;;;;;;4.95;2.90;;;25.60;1.00;;;;;;5011774;28;20112;-65
2021/06/03 10:09:47;;;;;;;5.65;3.20;;;25.40;1.00;;;;;;5023079;28;20056;-63
2021/06/03 10:12:48;;;;;;;7.00;2.77;;;25.10;1.00;;;;;;5022448;28;20045;-65
2021/06/03 10:15:40;;;;;;;5.47;3.35;;;24.30;1.00;;;;;;5012053;28;20034;-64
2021/06/03 10:18:29;;;;;;;4.55;2.85;;;25.10;1.00;;;;;;5006249;28;20049;-64
2021/06/03 10:21:17;;;;;;;3.75;2.70;;;25.00;1.00;;;;;;5021315;28;20620;-64
2021/06/03 10:24:06;;;;;;;12.30;8.77;;;25.20;1.00;;;;;;5022971;28;20536;-65
2021/06/03 10:26:55;;;;;;;3.67;2.38;;;25.60;1.00;;;;;;5028001;28;20091;-64
2021/06/03 10:29:47;;;;;;;3.70;2.80;;;25.60;1.00;;;;;;5027803;28;20080;-65
2021/06/03 10:32:36;;;;;;;8.50;3.22;;;26.00;1.00;;;;;;5021394;28;20692;-64
2021/06/03 10:35:27;;;;;;;4.05;2.70;;;25.90;1.00;;;;;;5025650;28;20041;-65
2021/06/03 10:38:16;;;;;;;2.72;2.20;;;26.10;1.00;;;;;;5028333;28;20042;-65
2021/06/03 10:41:06;;;;;;;4.60;2.63;;;25.80;1.00;;;;;;5024984;28;20410;-63
2021/06/03 10:43:55;;;;;;;3.38;2.85;;;25.90;1.00;;;;;;5025952;28;20059;-65
2021/06/03 10:46:45;;;;;;;3.33;2.40;;;26.90;1.00;;;;;;5010058;28;20049;-66
2021/06/03 10:49:34;;;;;;;3.05;2.35;;;26.70;1.00;;;;;;5012313;28;20056;-64
2021/06/03 10:52:23;;;;;;;8.77;2.65;;;26.60;1.00;;;;;;5022554;28;20527;-66
2021/06/03 10:55:25;;;;;;;2.35;2.03;;;26.80;1.00;;;;;;5026827;28;20046;-65
2021/06/03 10:58:15;;;;;;;2.83;2.30;;;27.00;1.00;;;;;;5025616;28;20107;-65
2021/06/03 11:01:05;;;;;;;3.53;2.72;;;27.00;1.00;;;;;;5022150;28;20085;-66
2021/06/03 11:03:59;;;;;;;4.70;2.67;;;27.80;1.00;;;;;;5018491;28;20060;-65
2021/06/03 11:06:47;;;;;;;2.55;2.00;;;27.90;1.00;;;;;;5008575;28;20037;-66
2021/06/03 11:09:40;;;;;;;3.53;2.05;;;27.70;1.00;;;;;;5037428;28;20526;-67
2021/06/03 11:12:28;;;;;;;6.75;2.30;;;27.90;1.00;;;;;;5021780;28;20064;-66
2021/06/03 11:15:18;;;;;;;4.65;2.30;;;28.40;1.00;;;;;;5024459;28;20063;-66
2021/06/03 11:18:08;;;;;;;3.55;2.10;;;28.50;1.00;;;;;;5019865;28;20049;-66
2021/06/03 11:20:57;;;;;;;3.63;2.00;;;27.40;1.00;;;;;;5008264;28;20045;-67
2021/06/03 11:23:47;;;;;;;2.50;2.05;;;27.80;1.00;;;;;;5026097;28;20057;-66
2021/06/03 11:26:55;;;;;;;5.53;2.33;;;27.30;1.00;;;;;;5024658;28;20057;-65
2021/06/03 11:29:58;;;;;;;3.72;2.20;;;27.50;1.00;;;;;;5014475;28;20068;-66
2021/06/03 11:32:52;;;;;;;3.28;2.30;;;27.00;1.00;;;;;;5003265;28;20428;-67
2021/06/03 11:35:41;;;;;;;3.70;2.50;;;26.70;1.00;;;;;;5023790;28;20057;-67
2021/06/03 11:38:43;;;;;;;4.57;2.53;;;25.80;1.00;;;;;;5009392;28;20051;-65
2021/06/03 11:41:36;;;;;;;4.80;2.58;;;25.40;1.00;;;;;;5020915;28;20049;-65
2021/06/03 11:44:24;;;;;;;3.58;2.55;;;25.40;1.00;;;;;;5016019;28;20046;-64
2021/06/03 11:47:12;;;;;;;7.28;2.63;;;24.70;1.00;;;;;;4999484;28;20041;-66
2021/06/03 11:50:00;;;;;;;9.98;3.30;;;24.20;1.00;;;;;;5007424;28;20068;-66
2021/06/03 11:53:11;;;;;;;9.05;3.65;;;21.80;1.00;;;;;;5008833;28;20077;-65
2021/06/03 11:56:14;;;;;;;5.18;3.65;;;20.70;16.70;;;;;;5010299;28;20045;-66
2021/06/03 11:59:03;;;;;;;6.75;3.42;;;20.90;18.50;;;;;;5022005;28;20037;-66
2021/06/03 12:01:51;;;;;;;5.70;2.42;;;20.30;16.20;;;;;;5017532;28;20172;-61
2021/06/03 12:05:15;;;;;;;6.05;2.40;;;20.30;6.60;;;;;;5028704;28;20428;-62
2021/06/03 12:08:04;;;;;;;4.50;2.15;;;20.20;6.40;;;;;;5006674;28;20055;-61
2021/06/03 12:10:55;;;;;;;2.05;1.75;;;20.20;7.80;;;;;;5008039;28;20056;-61
2021/06/03 12:13:45;;;;;;;6.90;2.30;;;20.50;6.70;;;;;;5024453;28;20075;-62
2021/06/03 12:16:35;;;;;;;3.30;2.25;;;20.60;8.10;;;;;;5016903;28;20058;-63
2021/06/03 12:19:26;;;;;;;6.50;3.35;;;20.60;4.10;;;;;;5018675;28;20136;-62
2021/06/03 12:22:17;;;;;;;6.15;3.40;;;20.90;7.80;;;;;;5005725;28;20054;-62
2021/06/03 12:25:07;;;;;;;6.93;4.03;;;21.00;8.00;;;;;;5005909;28;20128;-62
2021/06/03 12:27:56;;;;;;;5.85;4.18;;;21.20;18.10;;;;;;5019386;28;20128;-63
2021/06/03 12:30:46;;;;;;;5.32;4.05;;;21.50;12.70;;;;;;5023117;28;20072;-62
2021/06/03 12:33:36;;;;;;;6.43;3.80;;;22.00;12.30;;;;;;5019210;28;20133;-63
2021/06/03 12:36:26;;;;;;;6.18;4.30;;;22.10;9.40;;;;;;5023588;28;20077;-62
2021/06/03 12:39:14;;;;;;;4.85;3.33;;;22.80;10.40;;;;;;5021404;28;20508;-63
2021/06/03 12:42:02;;;;;;;4.78;3.67;;;23.40;6.60;;;;;;5016025;28;20053;-63
2021/06/03 12:44:59;;;;;;;6.07;3.67;;;23.10;1.00;;;;;;5022266;28;20098;-63
2021/06/03 12:47:51;;;;;;;4.07;3.13;;;23.10;1.00;;;;;;5024214;28;20042;-63
2021/06/03 12:50:43;;;;;;;4.05;2.97;;;23.30;1.00;;;;;;5020996;28;20041;-64
2021/06/03 12:53:31;;;;;;;3.75;3.38;;;23.50;1.00;;;;;;5019209;28;20665;-63
2021/06/03 12:56:23;;;;;;;5.13;2.78;;;23.50;1.00;;;;;;5022965;28;20057;-63
2021/06/03 12:59:21;;;;;;;3.22;2.72;;;24.20;1.00;;;;;;5012234;28;20488;-64
2021/06/03 13:02:11;;;;;;;2.70;2.50;;;24.40;1.00;;;;;;5019760;28;20049;-63
2021/06/03 13:05:01;;;;;;;2.90;2.05;;;24.60;1.00;;;;;;5008518;28;20135;-64
2021/06/03 13:07:49;;;;;;;2.00;1.67;;;24.60;1.00;;;;;;5024635;28;20128;-63
2021/06/03 13:10:38;;;;;;;2.65;2.13;;;24.50;1.00;;;;;;5019101;28;20058;-65
2021/06/03 13:13:26;;;;;;;3.63;2.00;;;25.30;1.00;;;;;;5024071;28;20060;-64
2021/06/03 13:16:21;;;;;;;2.63;2.00;;;25.30;1.00;;;;;;5026483;28;20703;-64
2021/06/03 13:19:12;;;;;;;2.63;1.88;;;26.10;1.00;;;;;;5027152;28;20045;-63
2021/06/03 13:22:02;;;;;;;3.58;1.83;;;25.70;1.00;;;;;;4995879;28;20072;-64
2021/06/03 13:24:52;;;;;;;2.92;1.77;;;26.00;1.00;;;;;;4997214;28;20041;-63
2021/06/03 13:27:45;;;;;;;3.05;1.95;;;25.80;1.00;;;;;;5027094;28;20046;-62
2021/06/03 13:30:38;;;;;;;2.20;1.65;;;26.40;1.00;;;;;;5027101;28;20065;-63
2021/06/03 13:33:28;;;;;;;2.05;1.63;;;26.40;1.00;;;;;;5003763;28;20519;-63
2021/06/03 13:36:18;;;;;;;3.38;2.17;;;27.00;1.00;;;;;;5019947;28;20096;-62
2021/06/03 13:39:08;;;;;;;2.20;1.83;;;26.50;1.00;;;;;;5021396;28;20076;-63
2021/06/03 13:41:57;;;;;;;3.45;2.00;;;25.80;1.00;;;;;;5022763;28;20041;-63
2021/06/03 13:44:54;;;;;;;2.60;2.05;;;25.70;1.00;;;;;;5027464;28;20037;-63
2021/06/03 13:47:48;;;;;;;3.03;2.15;;;25.70;1.00;;;;;;5010495;28;20038;-63
2021/06/03 13:50:40;;;;;;;3.17;2.13;;;25.50;1.00;;;;;;5024668;28;20052;-63
2021/06/03 13:53:32;;;;;;;3.35;2.03;;;25.70;1.00;;;;;;5021721;28;20192;-64
2021/06/03 13:56:23;;;;;;;2.88;2.28;;;25.60;1.00;;;;;;5010032;28;20033;-64
2021/06/03 13:59:13;;;;;;;3.40;2.10;;;25.50;1.00;;;;;;5029644;28;20127;-63
2021/06/03 14:02:01;;;;;;;3.15;1.95;;;25.60;1.00;;;;;;5019054;28;20050;-62
2021/06/03 14:04:49;;;;;;;3.38;1.92;;;25.00;1.00;;;;;;5009630;28;20124;-63
2021/06/03 14:07:37;;;;;;;2.33;1.33;;;25.20;1.00;;;;;;5025322;28;20385;-63
2021/06/03 14:10:25;;;;;;;2.80;1.73;;;25.40;1.00;;;;;;5026086;28;20045;-63
2021/06/03 14:13:15;;;;;;;2.45;1.70;;;25.60;1.00;;;;;;5024638;28;20104;-63
2021/06/03 14:16:03;;;;;;;3.70;2.20;;;26.00;1.00;;;;;;5007156;28;20057;-64
2021/06/03 14:18:51;;;;;;;3.53;1.92;;;26.10;1.00;;;;;;5024894;28;20623;-64
2021/06/03 14:21:58;;;;;;;4.93;2.20;;;26.10;1.00;;;;;;5041944;28;20535;-63
2021/06/03 14:24:49;;;;;;;3.15;2.40;;;26.10;1.00;;;;;;5002798;28;20048;-64
2021/06/03 14:27:40;;;;;;;5.38;2.38;;;25.60;1.00;;;;;;5027950;28;20155;-64
2021/06/03 14:30:30;;;;;;;4.35;2.38;;;25.60;1.00;;;;;;4995645;28;20517;-64
2021/06/03 14:33:20;;;;;;;4.70;2.33;;;25.80;1.00;;;;;;5020798;28;20053;-64
2021/06/03 14:36:08;;;;;;;1.80;1.70;;;26.00;1.00;;;;;;5025279;28;20297;-64
2021/06/03 14:38:59;;;;;;;3.83;1.85;;;26.10;1.00;;;;;;5026875;28;20171;-64
2021/06/03 14:41:47;;;;;;;2.30;1.80;;;26.40;1.00;;;;;;5023758;28;20100;-63
2021/06/03 14:44:47;;;;;;;3.30;2.15;;;26.40;1.00;;;;;;5024516;28;20041;-63
2021/06/03 14:47:37;;;;;;;4.47;2.03;;;26.50;1.00;;;;;;5022101;28;20501;-64
2021/06/03 14:50:27;;;;;;;3.83;2.00;;;26.30;1.00;;;;;;5021367;28;20057;-63
2021/06/03 14:53:19;;;;;;;3.95;1.70;;;26.50;1.00;;;;;;5023019;28;20044;-63
2021/06/03 14:56:09;;;;;;;1.92;1.52;;;26.80;1.00;;;;;;5011130;28;20055;-64